地図

経路データ

SID SEASON NUMBER BASIN SUBBASIN NAME ISO_TIME NATURE LAT LON WMO_WIND WMO_PRES WMO_AGENCY TRACK_TYPE DIST2LAND LANDFALL IFLAG USA_AGENCY USA_ATCF_ID USA_LAT USA_LON USA_RECORD USA_STATUS USA_WIND USA_PRES USA_SSHS USA_R34_NE USA_R34_SE USA_R34_SW USA_R34_NW USA_R50_NE USA_R50_SE USA_R50_SW USA_R50_NW USA_R64_NE USA_R64_SE USA_R64_SW USA_R64_NW USA_POCI USA_ROCI USA_RMW USA_EYE TOKYO_LAT TOKYO_LON TOKYO_GRADE TOKYO_WIND TOKYO_PRES TOKYO_R50_DIR TOKYO_R50_LONG TOKYO_R50_SHORT TOKYO_R30_DIR TOKYO_R30_LONG TOKYO_R30_SHORT TOKYO_LAND CMA_LAT CMA_LON CMA_CAT CMA_WIND CMA_PRES HKO_LAT HKO_LON HKO_CAT HKO_WIND HKO_PRES NEWDELHI_LAT NEWDELHI_LON NEWDELHI_GRADE NEWDELHI_WIND NEWDELHI_PRES NEWDELHI_CI NEWDELHI_DP NEWDELHI_POCI REUNION_LAT REUNION_LON REUNION_TYPE REUNION_WIND REUNION_PRES REUNION_TNUM REUNION_CI REUNION_RMW REUNION_R34_NE REUNION_R34_SE REUNION_R34_SW REUNION_R34_NW REUNION_R50_NE REUNION_R50_SE REUNION_R50_SW REUNION_R50_NW REUNION_R64_NE REUNION_R64_SE REUNION_R64_SW REUNION_R64_NW BOM_LAT BOM_LON BOM_TYPE BOM_WIND BOM_PRES BOM_TNUM BOM_CI BOM_RMW BOM_R34_NE BOM_R34_SE BOM_R34_SW BOM_R34_NW BOM_R50_NE BOM_R50_SE BOM_R50_SW BOM_R50_NW BOM_R64_NE BOM_R64_SE BOM_R64_SW BOM_R64_NW BOM_ROCI BOM_POCI BOM_EYE BOM_POS_METHOD BOM_PRES_METHOD NADI_LAT NADI_LON NADI_CAT NADI_WIND NADI_PRES WELLINGTON_LAT WELLINGTON_LON WELLINGTON_WIND WELLINGTON_PRES DS824_LAT DS824_LON DS824_STAGE DS824_WIND DS824_PRES TD9636_LAT TD9636_LON TD9636_STAGE TD9636_WIND TD9636_PRES TD9635_LAT TD9635_LON TD9635_WIND TD9635_PRES TD9635_ROCI NEUMANN_LAT NEUMANN_LON NEUMANN_CLASS NEUMANN_WIND NEUMANN_PRES MLC_LAT MLC_LON MLC_CLASS MLC_WIND MLC_PRES USA_GUST BOM_GUST BOM_GUST_PER REUNION_GUST REUNION_GUST_PER USA_SEAHGT USA_SEARAD_NE USA_SEARAD_SE USA_SEARAD_SW USA_SEARAD_NW STORM_SPEED STORM_DIR
1940299N22288 1940 76 NA NA NOT_NAMED 1940-10-24 18:00:00 TS 22.0000 -72.5000 35 hurdat_atl main 103 103 O_____________ hurdat_atl AL091940 22.0000 -72.5000 TS 35 0 5 33
1940299N22288 1940 76 NA NA NOT_NAMED 1940-10-24 21:00:00 TS 22.2126 -72.3529 main 127 127 P_____________ AL091940 22.2126 -72.3529 TS 35 0 6 29
1940299N22288 1940 76 NA NA NOT_NAMED 1940-10-25 00:00:00 TS 22.5000 -72.2000 35 hurdat_atl main 167 167 O_____________ hurdat_atl AL091940 22.5000 -72.2000 TS 35 0 8 24
1940299N22288 1940 76 NA NA NOT_NAMED 1940-10-25 03:00:00 TS 22.9247 -72.0165 main 216 216 P_____________ AL091940 22.9247 -72.0165 TS 37 0 11 25
1940299N22288 1940 76 NA NA NOT_NAMED 1940-10-25 06:00:00 TS 23.5000 -71.7000 40 hurdat_atl main 289 289 O_____________ hurdat_atl AL091940 23.5000 -71.7000 TS 40 0 15 29
1940299N22288 1940 76 NA NA NOT_NAMED 1940-10-25 09:00:00 TS 24.1962 -71.2481 main 382 382 P_____________ AL091940 24.1962 -71.2481 TS 40 0 19 36
1940299N22288 1940 76 NA NA NOT_NAMED 1940-10-25 12:00:00 TS 25.0000 -70.5000 40 hurdat_atl main 495 495 O_____________ hurdat_atl AL091940 25.0000 -70.5000 TS 40 0 23 46
1940299N22288 1940 76 NA NA NOT_NAMED 1940-10-25 15:00:00 TS 25.7502 -69.4532 main 625 625 P_____________ AL091940 25.7502 -69.4532 TS 40 0 28 53
1940299N22288 1940 76 NA NA NOT_NAMED 1940-10-25 18:00:00 TS 26.7000 -68.0000 40 hurdat_atl main 797 797 O_____________ hurdat_atl AL091940 26.7000 -68.0000 TS 40 0 37 53
1940299N22288 1940 76 NA NA NOT_NAMED 1940-10-25 21:00:00 TS 27.9263 -66.1784 main 1004 1004 P_____________ AL091940 27.9263 -66.1784 TS 40 0 45 52
1940299N22288 1940 76 NA NA NOT_NAMED 1940-10-26 00:00:00 TS 29.5000 -64.0000 40 hurdat_atl main 1251 1251 O_____________ hurdat_atl AL091940 29.5000 -64.0000 TS 40 0 55 49
1940299N22288 1940 76 NA NA NOT_NAMED 1940-10-26 03:00:00 TS 31.4918 -61.4400 main 1368 1245 P_____________ AL091940 31.4918 -61.4400 TS 42 0 59 47
1940299N22288 1940 76 NA NA NOT_NAMED 1940-10-26 06:00:00 ET 33.5000 -59.0000 45 hurdat_atl main 1239 1162 O_____________ hurdat_atl AL091940 33.5000 -59.0000 EX 45 -4 50 44
1940299N22288 1940 76 NA NA NOT_NAMED 1940-10-26 09:00:00 ET 35.1040 -57.2990 main 1158 1064 P_____________ AL091940 35.1040 -57.2990 EX 47 -4 39 39
1940299N22288 1940 76 NA NA NOT_NAMED 1940-10-26 12:00:00 ET 36.5000 -56.0000 50 hurdat_atl main 1057 978 O_____________ hurdat_atl AL091940 36.5000 -56.0000 EX 50 -4 35 38
1940299N22288 1940 76 NA NA NOT_NAMED 1940-10-26 15:00:00 ET 37.8240 -54.6351 main 982 856 P_____________ AL091940 37.8240 -54.6351 EX 52 -4 32 38
1940299N22288 1940 76 NA NA NOT_NAMED 1940-10-26 18:00:00 ET 39.0000 -53.5000 55 hurdat_atl main 845 734 O_____________ hurdat_atl AL091940 39.0000 -53.5000 EX 55 -4 27 35
1940299N22288 1940 76 NA NA NOT_NAMED 1940-10-26 21:00:00 ET 40.0356 -52.6322 main 735 639 P_____________ AL091940 40.0356 -52.6322 EX 57 -4 23 30
1940299N22288 1940 76 NA NA NOT_NAMED 1940-10-27 00:00:00 ET 41.0000 -52.0000 60 hurdat_atl main 629 539 O_____________ hurdat_atl AL091940 41.0000 -52.0000 EX 60 -4 22 24
1940299N22288 1940 76 NA NA NOT_NAMED 1940-10-27 03:00:00 ET 41.9992 -51.4593 main 528 443 P_____________ AL091940 41.9992 -51.4593 EX 62 -4 21 20
1940299N22288 1940 76 NA NA NOT_NAMED 1940-10-27 06:00:00 ET 43.0000 -51.0000 65 hurdat_atl main 435 357 O_____________ hurdat_atl AL091940 43.0000 -51.0000 EX 65 -4 22 20
1940299N22288 1940 76 NA NA NOT_NAMED 1940-10-27 09:00:00 ET 44.0377 -50.4562 main 357 311 P_____________ AL091940 44.0377 -50.4562 EX 67 -4 21 20
1940299N22288 1940 76 NA NA NOT_NAMED 1940-10-27 12:00:00 ET 45.0000 -50.0000 70 hurdat_atl main 304 268 O_____________ hurdat_atl AL091940 45.0000 -50.0000 EX 70 -4 19 16
1940299N22288 1940 76 NA NA NOT_NAMED 1940-10-27 15:00:00 ET 45.8471 -49.7379 main 275 252 P_____________ AL091940 45.8471 -49.7379 EX 70 -4 15 11
1940299N22288 1940 76 NA NA NOT_NAMED 1940-10-27 18:00:00 ET 46.5000 -49.6000 70 hurdat_atl main 252 242 O_____________ hurdat_atl AL091940 46.5000 -49.6000 EX 70 -4 11 10
1940299N22288 1940 76 NA NA NOT_NAMED 1940-10-27 21:00:00 ET 46.9249 -49.4767 main 242 239 P_____________ AL091940 46.9249 -49.4767 EX 70 -4 7 11
1940299N22288 1940 76 NA NA NOT_NAMED 1940-10-28 00:00:00 ET 47.2000 -49.4000 70 hurdat_atl main 242 239 O_____________ hurdat_atl AL091940 47.2000 -49.4000 EX 70 -4 6 8
1940299N22288 1940 76 NA NA NOT_NAMED 1940-10-28 03:00:00 ET 47.4799 -49.3572 main 239 239 P_____________ AL091940 47.4799 -49.3572 EX 67 -4 5 8
1940299N22288 1940 76 NA NA NOT_NAMED 1940-10-28 06:00:00 ET 47.7000 -49.3000 65 hurdat_atl main 247 247 O_____________ hurdat_atl AL091940 47.7000 -49.3000 EX 65 -4 4 15
1940299N22288 1940 76 NA NA NOT_NAMED 1940-10-28 09:00:00 ET 47.8646 -49.2170 main 257 257 P_____________ AL091940 47.8646 -49.2170 EX 62 -4 4 34
1940299N22288 1940 76 NA NA NOT_NAMED 1940-10-28 12:00:00 ET 48.0000 -49.0000 60 hurdat_atl main 273 273 O_____________ hurdat_atl AL091940 48.0000 -49.0000 EX 60 -4 5 56
1940299N22288 1940 76 NA NA NOT_NAMED 1940-10-28 15:00:00 ET 48.1497 -48.5898 main 304 304 P_____________ AL091940 48.1497 -48.5898 EX 57 -4 7 66
1940299N22288 1940 76 NA NA NOT_NAMED 1940-10-28 18:00:00 ET 48.3000 -48.0000 55 hurdat_atl main 352 352 O_____________ hurdat_atl AL091940 48.3000 -48.0000 EX 55 -4 9 70
1940299N22288 1940 76 NA NA NOT_NAMED 1940-10-28 21:00:00 ET 48.4573 -47.3026 main 407 407 P_____________ AL091940 48.4573 -47.3026 EX 52 -4 10 73
1940299N22288 1940 76 NA NA NOT_NAMED 1940-10-29 00:00:00 ET 48.6000 -46.5000 50 hurdat_atl main 466 466 O_____________ hurdat_atl AL091940 48.6000 -46.5000 EX 50 -4 11 77
1940299N22288 1940 76 NA NA NOT_NAMED 1940-10-29 03:00:00 ET 48.7070 -45.6718 main 525 525 P_____________ AL091940 48.7070 -45.6718 EX 47 -4 11 80
1940299N22288 1940 76 NA NA NOT_NAMED 1940-10-29 06:00:00 ET 48.8000 -44.8000 45 hurdat_atl main 592 592 O_____________ hurdat_atl AL091940 48.8000 -44.8000 EX 45 -4 12 81
1940299N22288 1940 76 NA NA NOT_NAMED 1940-10-29 09:00:00 ET 48.8991 -43.9221 main 658 658 P_____________ AL091940 48.8991 -43.9221 EX 42 -4 12 80
1940299N22288 1940 76 NA NA NOT_NAMED 1940-10-29 12:00:00 ET 49.0000 -43.0000 40 hurdat_atl main 724 724 O_____________ hurdat_atl AL091940 49.0000 -43.0000 EX 40 -4 13 81
1940299N22288 1940 76 NA NA NOT_NAMED 1940-10-29 15:00:00 ET 49.1020 -42.0184 main 797 797 P_____________ AL091940 49.1020 -42.0184 EX 40 -4 13 81
1940299N22288 1940 76 NA NA NOT_NAMED 1940-10-29 18:00:00 ET 49.2000 -41.0000 40 hurdat_atl main 870 O_____________ hurdat_atl AL091940 49.2000 -41.0000 EX 40 -4 13 82

IBTrACS Databaseについて

本データベースは、米国NOAAが公開する1842年以降の世界の熱帯低気圧のベストトラックデータアーカイブInternational Best Track Archive for Climate Stewardship (IBTrACS)を、ウェブで閲覧しやすい形式に変換したものです。

最終更新日:2021-10-27